createdAt,value
2017-05-19T00:00:25.351Z,0
2017-05-19T00:01:05.938Z,0
2017-05-19T00:01:46.532Z,0
2017-05-19T00:02:27.141Z,0
2017-05-19T00:03:07.783Z,0
2017-05-19T00:03:48.370Z,0
2017-05-19T00:04:28.964Z,0
2017-05-19T00:05:09.576Z,0
2017-05-19T00:05:50.165Z,0
2017-05-19T00:06:30.756Z,0
2017-05-19T00:07:11.350Z,0
2017-05-19T00:07:51.960Z,0
2017-05-19T00:08:32.570Z,0
2017-05-19T00:09:13.167Z,0
2017-05-19T00:09:53.769Z,0
2017-05-19T00:10:34.348Z,0
2017-05-19T00:11:14.943Z,0
2017-05-19T00:11:55.512Z,0
2017-05-19T00:12:36.101Z,0
2017-05-19T00:13:16.687Z,0
2017-05-19T00:13:57.291Z,0
2017-05-19T00:14:37.885Z,0
2017-05-19T00:15:18.474Z,0
2017-05-19T00:15:59.055Z,0
2017-05-19T00:16:39.660Z,0
2017-05-19T00:17:20.273Z,0
2017-05-19T00:18:00.848Z,0
2017-05-19T00:18:41.438Z,0
2017-05-19T00:19:22.025Z,0
2017-05-19T00:20:02.606Z,0
2017-05-19T00:20:43.191Z,0
2017-05-19T00:21:23.801Z,0
2017-05-19T00:22:04.390Z,0
2017-05-19T00:22:44.961Z,0
2017-05-19T00:23:25.550Z,0
2017-05-19T00:24:06.143Z,0
2017-05-19T00:24:46.734Z,0
2017-05-19T00:25:27.331Z,0
2017-05-19T00:26:07.936Z,0
2017-05-19T00:26:48.564Z,0
2017-05-19T00:27:29.180Z,0
2017-05-19T00:28:09.733Z,0
2017-05-19T00:28:50.405Z,0
2017-05-19T00:29:30.998Z,0
2017-05-19T00:30:11.624Z,0
2017-05-19T00:30:52.233Z,0
2017-05-19T00:31:32.841Z,0
2017-05-19T00:32:13.449Z,0
2017-05-19T00:32:54.049Z,0
2017-05-19T00:33:34.676Z,0
2017-05-19T00:34:15.264Z,0
2017-05-19T00:34:55.843Z,0
2017-05-19T00:35:36.433Z,0
2017-05-19T00:36:17.013Z,0
2017-05-19T00:36:57.595Z,0
2017-05-19T00:37:38.177Z,0
2017-05-19T00:38:18.753Z,0
2017-05-19T00:38:59.332Z,0
2017-05-19T00:39:39.917Z,0
2017-05-19T00:40:20.500Z,0
2017-05-19T00:41:01.070Z,0
2017-05-19T00:41:41.679Z,0
2017-05-19T00:42:22.272Z,0
2017-05-19T00:43:02.871Z,0
2017-05-19T00:43:43.503Z,0
2017-05-19T00:44:24.075Z,0
2017-05-19T00:45:04.659Z,0
2017-05-19T00:45:45.239Z,0
2017-05-19T00:46:25.896Z,0
2017-05-19T00:47:06.496Z,0
2017-05-19T00:47:47.089Z,0
2017-05-19T00:48:27.685Z,0
2017-05-19T00:49:08.251Z,0
2017-05-19T00:49:48.837Z,0
2017-05-19T00:50:29.420Z,0
2017-05-19T00:51:09.992Z,0
2017-05-19T00:51:50.606Z,0
2017-05-19T00:52:31.765Z,0
2017-05-19T00:53:12.356Z,0
2017-05-19T00:53:52.953Z,0
2017-05-19T00:54:33.543Z,0
2017-05-19T00:55:14.130Z,0
2017-05-19T00:55:54.716Z,0
2017-05-19T00:56:35.289Z,0
2017-05-19T00:57:15.886Z,0
2017-05-19T00:57:56.459Z,0
2017-05-19T00:58:37.046Z,0
2017-05-19T00:59:17.643Z,0
2017-05-19T00:59:58.235Z,0
2017-05-19T01:00:38.809Z,0
2017-05-19T01:01:19.381Z,0
2017-05-19T01:01:59.985Z,0
2017-05-19T01:02:40.552Z,0
2017-05-19T01:03:21.806Z,0
2017-05-19T01:04:01.736Z,0
2017-05-19T01:04:42.331Z,0
2017-05-19T01:05:22.935Z,0
2017-05-19T01:06:03.548Z,0
2017-05-19T01:06:44.145Z,0
2017-05-19T01:07:24.736Z,0
2017-05-19T01:08:05.307Z,0
2017-05-19T01:08:45.894Z,0
2017-05-19T01:09:26.510Z,0
2017-05-19T01:10:07.112Z,0
2017-05-19T01:10:47.715Z,0
2017-05-19T01:11:28.305Z,0
2017-05-19T01:12:08.900Z,0
2017-05-19T01:12:49.493Z,0
2017-05-19T01:13:30.114Z,0
2017-05-19T01:14:10.684Z,0
2017-05-19T01:14:51.315Z,0
2017-05-19T01:15:31.913Z,0
2017-05-19T01:16:12.495Z,0
2017-05-19T01:16:53.077Z,0
2017-05-19T01:17:33.668Z,0
2017-05-19T01:18:14.285Z,0
2017-05-19T01:18:54.860Z,0
2017-05-19T01:19:35.450Z,0
2017-05-19T01:20:16.051Z,0
2017-05-19T01:20:56.624Z,0
2017-05-19T01:21:37.213Z,0
2017-05-19T01:22:17.802Z,0
2017-05-19T01:22:58.410Z,0
2017-05-19T01:23:39.022Z,0
2017-05-19T01:24:19.601Z,0
2017-05-19T01:25:00.177Z,0
2017-05-19T01:25:40.758Z,0
2017-05-19T01:26:21.339Z,0
2017-05-19T01:27:01.931Z,0
2017-05-19T01:27:42.589Z,0
2017-05-19T01:28:23.174Z,0
2017-05-19T01:29:03.807Z,0
2017-05-19T01:29:44.396Z,0
2017-05-19T01:30:25.008Z,0
2017-05-19T01:31:05.579Z,0
2017-05-19T01:31:46.186Z,0
2017-05-19T01:32:26.762Z,0
2017-05-19T01:33:07.329Z,0
2017-05-19T01:33:47.908Z,0
2017-05-19T01:34:28.541Z,0
2017-05-19T01:35:09.109Z,0
2017-05-19T01:35:49.700Z,0
2017-05-19T01:36:30.277Z,0
2017-05-19T01:37:10.862Z,0
2017-05-19T01:37:51.482Z,0
2017-05-19T01:38:32.054Z,0
2017-05-19T01:39:12.634Z,0
2017-05-19T01:39:53.209Z,0
2017-05-19T01:40:33.782Z,0
2017-05-19T01:41:14.382Z,0
2017-05-19T01:41:54.964Z,0
2017-05-19T01:42:35.577Z,0
2017-05-19T01:43:16.174Z,0
2017-05-19T01:43:56.777Z,0
2017-05-19T01:44:37.365Z,0
2017-05-19T01:45:17.972Z,0
2017-05-19T01:45:58.550Z,0
2017-05-19T01:46:39.129Z,0
2017-05-19T01:47:19.735Z,0
2017-05-19T01:48:00.333Z,0
2017-05-19T01:48:40.923Z,0
2017-05-19T01:49:21.531Z,0
2017-05-19T01:50:02.110Z,0
2017-05-19T01:50:42.693Z,0
2017-05-19T01:51:23.276Z,0
2017-05-19T01:52:03.869Z,0
2017-05-19T01:52:44.438Z,0
2017-05-19T01:53:25.059Z,0
2017-05-19T01:54:05.631Z,0
2017-05-19T01:54:46.197Z,0
2017-05-19T01:55:26.794Z,0
2017-05-19T01:56:07.402Z,0
2017-05-19T01:56:47.998Z,0
2017-05-19T01:57:28.618Z,0
2017-05-19T01:58:09.268Z,0
2017-05-19T01:58:49.779Z,0
2017-05-19T01:59:30.358Z,0
2017-05-19T02:00:10.966Z,0
2017-05-19T02:00:51.608Z,0
2017-05-19T02:01:32.230Z,0
2017-05-19T02:02:12.823Z,0
2017-05-19T02:02:53.476Z,0
2017-05-19T02:03:34.059Z,0
2017-05-19T02:04:14.682Z,0
2017-05-19T02:04:55.288Z,0
2017-05-19T02:05:35.882Z,0
2017-05-19T02:06:16.502Z,0
2017-05-19T02:06:57.106Z,0
2017-05-19T02:07:37.675Z,0
2017-05-19T02:08:18.277Z,0
2017-05-19T02:08:58.867Z,0
2017-05-19T02:09:39.435Z,0
2017-05-19T02:10:20.050Z,0
2017-05-19T02:11:00.648Z,0
2017-05-19T02:11:41.237Z,0
2017-05-19T02:12:21.854Z,0
2017-05-19T02:13:02.492Z,0
2017-05-19T02:13:43.186Z,0
2017-05-19T02:14:23.758Z,0
2017-05-19T02:15:04.400Z,0
2017-05-19T02:15:44.989Z,0
2017-05-19T02:16:25.611Z,0
2017-05-19T02:17:06.218Z,0
2017-05-19T02:17:46.799Z,0
2017-05-19T02:18:27.375Z,0
2017-05-19T02:19:08.004Z,0
2017-05-19T02:19:48.594Z,0
2017-05-19T02:20:29.221Z,0
2017-05-19T02:21:09.893Z,0
2017-05-19T02:21:50.470Z,0
2017-05-19T02:22:31.057Z,0
2017-05-19T02:23:11.631Z,0
2017-05-19T02:23:52.231Z,0
2017-05-19T02:24:32.839Z,0
2017-05-19T02:25:13.430Z,0
2017-05-19T02:25:54.049Z,0
2017-05-19T02:26:34.617Z,4
2017-05-19T02:27:15.215Z,4
2017-05-19T02:27:55.837Z,4
2017-05-19T02:28:36.394Z,0
2017-05-19T02:29:16.978Z,0
2017-05-19T02:29:57.598Z,0
2017-05-19T02:30:38.147Z,4
2017-05-19T02:31:18.726Z,4
2017-05-19T02:31:59.382Z,4
2017-05-19T02:32:39.963Z,4
2017-05-19T02:33:20.603Z,4
2017-05-19T02:34:01.187Z,4
2017-05-19T02:34:41.788Z,4
2017-05-19T02:35:22.362Z,4
2017-05-19T02:36:02.966Z,8
2017-05-19T02:36:43.542Z,4
2017-05-19T02:37:24.158Z,8
2017-05-19T02:38:04.743Z,4
2017-05-19T02:38:45.363Z,8
2017-05-19T02:39:25.934Z,8
2017-05-19T02:40:06.515Z,8
2017-05-19T02:40:47.112Z,8
2017-05-19T02:41:27.705Z,12
2017-05-19T02:42:08.294Z,12
2017-05-19T02:42:48.872Z,12
2017-05-19T02:43:29.452Z,16
2017-05-19T02:44:10.025Z,16
2017-05-19T02:44:50.665Z,16
2017-05-19T02:45:31.300Z,16
2017-05-19T02:46:11.881Z,20
2017-05-19T02:46:52.505Z,20
2017-05-19T02:47:33.119Z,20
2017-05-19T02:48:13.712Z,24
2017-05-19T02:48:54.287Z,24
2017-05-19T02:49:34.886Z,28
2017-05-19T02:50:15.474Z,28
2017-05-19T02:50:56.052Z,32
2017-05-19T02:51:36.637Z,36
2017-05-19T02:52:17.225Z,36
2017-05-19T02:52:57.792Z,40
2017-05-19T02:53:38.390Z,40
2017-05-19T02:54:18.979Z,44
2017-05-19T02:54:59.545Z,48
2017-05-19T02:55:40.151Z,52
2017-05-19T02:56:20.746Z,56
2017-05-19T02:57:01.365Z,60
2017-05-19T02:57:41.963Z,64
2017-05-19T02:58:22.554Z,68
2017-05-19T02:59:03.141Z,68
2017-05-19T02:59:43.772Z,76
2017-05-19T03:00:24.367Z,80
2017-05-19T03:01:04.967Z,84
2017-05-19T03:01:45.564Z,92
2017-05-19T03:02:26.168Z,92
2017-05-19T03:03:06.751Z,100
2017-05-19T03:03:47.379Z,104
2017-05-19T03:04:27.957Z,112
2017-05-19T03:05:08.559Z,116
2017-05-19T03:05:49.147Z,128
2017-05-19T03:06:29.725Z,132
2017-05-19T03:07:10.318Z,136
2017-05-19T03:07:50.926Z,148
2017-05-19T03:08:31.532Z,152
2017-05-19T03:09:12.132Z,160
2017-05-19T03:09:52.722Z,168
2017-05-19T03:10:33.322Z,180
2017-05-19T03:11:13.941Z,184
2017-05-19T03:11:54.525Z,196
2017-05-19T03:12:35.175Z,200
2017-05-19T03:13:15.761Z,212
2017-05-19T03:13:56.347Z,220
2017-05-19T03:14:36.972Z,228
2017-05-19T03:15:17.558Z,244
2017-05-19T03:15:58.142Z,252
2017-05-19T03:16:38.757Z,264
2017-05-19T03:17:19.357Z,272
2017-05-19T03:17:59.951Z,284
2017-05-19T03:18:40.572Z,296
2017-05-19T03:19:21.143Z,308
2017-05-19T03:20:01.735Z,316
2017-05-19T03:20:42.308Z,332
2017-05-19T03:21:22.911Z,344
2017-05-19T03:22:03.492Z,356
2017-05-19T03:22:44.098Z,372
2017-05-19T03:23:24.704Z,384
2017-05-19T03:24:05.350Z,396
2017-05-19T03:24:45.911Z,412
2017-05-19T03:25:26.542Z,424
2017-05-19T03:26:07.177Z,440
2017-05-19T03:26:47.774Z,452
2017-05-19T03:27:28.354Z,468
2017-05-19T03:28:08.932Z,480
2017-05-19T03:28:49.525Z,496
2017-05-19T03:29:30.097Z,508
2017-05-19T03:30:10.731Z,528
2017-05-19T03:30:51.335Z,540
2017-05-19T03:31:31.898Z,556
2017-05-19T03:32:12.486Z,572
2017-05-19T03:32:53.055Z,588
2017-05-19T03:33:33.638Z,604
2017-05-19T03:34:14.221Z,620
2017-05-19T03:34:54.834Z,640
2017-05-19T03:35:35.417Z,656
2017-05-19T03:36:16.026Z,668
2017-05-19T03:36:56.603Z,688
2017-05-19T03:37:37.203Z,704
2017-05-19T03:38:17.794Z,720
2017-05-19T03:38:58.378Z,740
2017-05-19T03:39:38.994Z,756
2017-05-19T03:40:19.613Z,776
2017-05-19T03:41:00.185Z,792
2017-05-19T03:41:40.755Z,812
2017-05-19T03:42:21.365Z,828
2017-05-19T03:43:01.961Z,844
2017-05-19T03:43:42.550Z,860
2017-05-19T03:44:23.124Z,880
2017-05-19T03:45:03.713Z,896
2017-05-19T03:45:44.297Z,912
2017-05-19T03:46:24.911Z,932
2017-05-19T03:47:05.510Z,948
2017-05-19T03:47:46.085Z,968
2017-05-19T03:48:26.668Z,980
2017-05-19T03:49:07.284Z,1000
2017-05-19T03:49:47.904Z,1016
2017-05-19T03:50:28.479Z,1032
2017-05-19T03:51:09.055Z,1048
2017-05-19T03:51:49.653Z,1068
2017-05-19T03:52:30.236Z,1088
2017-05-19T03:53:10.821Z,1108
2017-05-19T03:53:51.406Z,1124
2017-05-19T03:54:32.039Z,1144
2017-05-19T03:55:12.631Z,1168
2017-05-19T03:55:53.232Z,1184
2017-05-19T03:56:33.811Z,1204
2017-05-19T03:57:14.402Z,1224
2017-05-19T03:57:54.976Z,1244
2017-05-19T03:58:35.580Z,1268
2017-05-19T03:59:16.191Z,1288
2017-05-19T03:59:56.767Z,1308
2017-05-19T04:00:37.354Z,1332
2017-05-19T04:01:17.943Z,1352
2017-05-19T04:01:58.551Z,1372
2017-05-19T04:02:39.142Z,1396
2017-05-19T04:03:19.725Z,1412
2017-05-19T04:04:00.308Z,1436
2017-05-19T04:04:40.912Z,1456
2017-05-19T04:05:21.505Z,1476
2017-05-19T04:06:02.139Z,1492
2017-05-19T04:06:42.686Z,1512
2017-05-19T04:07:23.265Z,1536
2017-05-19T04:08:03.850Z,1552
2017-05-19T04:08:44.440Z,1572
2017-05-19T04:09:25.051Z,1596
2017-05-19T04:10:05.663Z,1616
2017-05-19T04:10:46.249Z,1636
2017-05-19T04:11:26.831Z,1656
2017-05-19T04:12:07.435Z,1680
2017-05-19T04:12:48.015Z,1700
2017-05-19T04:13:28.609Z,1720
2017-05-19T04:14:09.206Z,1736
2017-05-19T04:14:49.830Z,1760
2017-05-19T04:15:30.411Z,1780
2017-05-19T04:16:10.999Z,1800
2017-05-19T04:16:51.577Z,1820
2017-05-19T04:17:32.145Z,1840
2017-05-19T04:18:12.740Z,1864
2017-05-19T04:18:53.330Z,1880
2017-05-19T04:19:33.901Z,1904
2017-05-19T04:20:14.500Z,1920
2017-05-19T04:20:55.071Z,1936
2017-05-19T04:21:35.657Z,1956
2017-05-19T04:22:16.246Z,1972
2017-05-19T04:22:56.846Z,1988
2017-05-19T04:23:37.448Z,2004
2017-05-19T04:24:18.046Z,2020
2017-05-19T04:24:58.626Z,2036
2017-05-19T04:25:39.232Z,2056
2017-05-19T04:26:19.813Z,2072
2017-05-19T04:27:00.406Z,2088
2017-05-19T04:27:41.007Z,2104
2017-05-19T04:28:21.622Z,2120
2017-05-19T04:29:02.160Z,2140
2017-05-19T04:29:42.767Z,2160
2017-05-19T04:30:23.421Z,2176
2017-05-19T04:31:04.007Z,2204
2017-05-19T04:31:44.623Z,2224
2017-05-19T04:32:25.210Z,2256
2017-05-19T04:33:05.812Z,2276
2017-05-19T04:33:46.385Z,2308
2017-05-19T04:34:26.966Z,2336
2017-05-19T04:35:07.586Z,2368
2017-05-19T04:35:48.161Z,2392
2017-05-19T04:36:28.744Z,2416
2017-05-19T04:37:09.327Z,2436
2017-05-19T04:37:49.930Z,2464
2017-05-19T04:38:30.523Z,2492
2017-05-19T04:39:11.147Z,2516
2017-05-19T04:39:51.735Z,2540
2017-05-19T04:40:32.312Z,2564
2017-05-19T04:41:12.890Z,2588
2017-05-19T04:41:53.470Z,2604
2017-05-19T04:42:34.062Z,2624
2017-05-19T04:43:14.639Z,2644
2017-05-19T04:43:55.228Z,2664
2017-05-19T04:44:35.807Z,2680
2017-05-19T04:45:16.397Z,2700
2017-05-19T04:45:56.983Z,2712
2017-05-19T04:46:37.611Z,2732
2017-05-19T04:47:18.222Z,2744
2017-05-19T04:47:58.793Z,2764
2017-05-19T04:48:39.389Z,2784
2017-05-19T04:49:20.017Z,2812
2017-05-19T04:50:00.605Z,2836
2017-05-19T04:50:41.194Z,2868
2017-05-19T04:51:21.799Z,2896
2017-05-19T04:52:02.361Z,2924
2017-05-19T04:52:42.943Z,2952
2017-05-19T04:53:23.533Z,2980
2017-05-19T04:54:04.114Z,3008
2017-05-19T04:54:44.753Z,3028
2017-05-19T04:55:25.338Z,3056
2017-05-19T04:56:05.915Z,3080
2017-05-19T04:56:46.535Z,3100
2017-05-19T04:57:27.216Z,3116
2017-05-19T04:58:07.797Z,3132
2017-05-19T04:58:48.369Z,3144
2017-05-19T04:59:28.958Z,3164
2017-05-19T05:00:09.568Z,3180
2017-05-19T05:00:50.171Z,3200
2017-05-19T05:01:30.775Z,3216
2017-05-19T05:02:11.370Z,3236
2017-05-19T05:02:51.972Z,3260
2017-05-19T05:03:32.613Z,3284
2017-05-19T05:04:13.219Z,3308
2017-05-19T05:04:53.873Z,3332
2017-05-19T05:05:34.459Z,3352
2017-05-19T05:06:15.041Z,3372
2017-05-19T05:06:55.675Z,3392
2017-05-19T05:07:36.268Z,3412
2017-05-19T05:08:16.834Z,3428
2017-05-19T05:08:57.448Z,3452
2017-05-19T05:09:38.073Z,3476
2017-05-19T05:10:18.656Z,3500
2017-05-19T05:10:59.252Z,3532
2017-05-19T05:11:39.891Z,3548
2017-05-19T05:12:20.486Z,3584
2017-05-19T05:13:01.092Z,3588
2017-05-19T05:13:41.706Z,3600
2017-05-19T05:14:22.360Z,3616
2017-05-19T05:15:02.957Z,3644
2017-05-19T05:15:43.568Z,3680
2017-05-19T05:16:24.184Z,3720
2017-05-19T05:17:04.773Z,3752
2017-05-19T05:17:45.365Z,3788
2017-05-19T05:18:25.919Z,3824
2017-05-19T05:19:06.526Z,3864
2017-05-19T05:19:47.122Z,3900
2017-05-19T05:20:27.709Z,3948
2017-05-19T05:21:08.324Z,3996
2017-05-19T05:21:48.936Z,4048
2017-05-19T05:22:29.532Z,4108
2017-05-19T05:23:10.166Z,4180
2017-05-19T05:23:50.747Z,4256
2017-05-19T05:24:31.323Z,4336
2017-05-19T05:25:12.072Z,4416
2017-05-19T05:25:52.697Z,4496
2017-05-19T05:26:33.291Z,4572
2017-05-19T05:27:13.887Z,4664
2017-05-19T05:27:54.478Z,4760
2017-05-19T05:28:35.054Z,5544
2017-05-19T05:29:15.650Z,16072
2017-05-19T05:29:56.243Z,31904
2017-05-19T05:30:36.811Z,41824
2017-05-19T05:31:17.397Z,50240
2017-05-19T05:31:57.969Z,57312
2017-05-19T05:32:38.554Z,68704
2017-05-19T05:33:19.147Z,72320
2017-05-19T05:33:59.714Z,73088
2017-05-19T05:34:40.305Z,73440
2017-05-19T05:35:20.911Z,73920
2017-05-19T05:36:01.532Z,72704
2017-05-19T05:36:42.085Z,72352
2017-05-19T05:37:22.678Z,71744
2017-05-19T05:38:03.318Z,72032
2017-05-19T05:38:43.914Z,72736
2017-05-19T05:39:24.532Z,72032
2017-05-19T05:40:05.131Z,70208
2017-05-19T05:40:45.785Z,69792
2017-05-19T05:41:26.436Z,70720
2017-05-19T05:42:07.020Z,73056
2017-05-19T05:42:47.612Z,75392
2017-05-19T05:43:28.273Z,75072
2017-05-19T05:44:08.874Z,74464
2017-05-19T05:44:49.443Z,76128
2017-05-19T05:45:30.039Z,77856
2017-05-19T05:46:10.653Z,77888
2017-05-19T05:46:51.238Z,76864
2017-05-19T05:47:31.831Z,75328
2017-05-19T05:48:12.425Z,76384
2017-05-19T05:48:53.007Z,78176
2017-05-19T05:49:33.587Z,80512
2017-05-19T05:50:14.175Z,81632
2017-05-19T05:50:54.753Z,81696
2017-05-19T05:51:35.367Z,82528
2017-05-19T05:52:15.985Z,83456
2017-05-19T05:52:56.597Z,83328
2017-05-19T05:53:37.220Z,82912
2017-05-19T05:54:17.846Z,84320
2017-05-19T05:54:58.440Z,86240
2017-05-19T05:55:39.027Z,87264
2017-05-19T05:56:19.611Z,86656
2017-05-19T05:57:00.195Z,84992
2017-05-19T05:57:40.788Z,84448
2017-05-19T05:58:21.369Z,85824
2017-05-19T05:59:01.981Z,86400
2017-05-19T05:59:42.604Z,86368
2017-05-19T06:00:23.236Z,87456
2017-05-19T06:01:03.786Z,87360
2017-05-19T06:01:44.415Z,85536
2017-05-19T06:02:25.065Z,85952
2017-05-19T06:03:05.640Z,85824
2017-05-19T06:03:46.220Z,85312
2017-05-19T06:04:26.820Z,85696
2017-05-19T06:05:07.420Z,82880
2017-05-19T06:05:48.029Z,79936
2017-05-19T06:06:28.625Z,76896
2017-05-19T06:07:09.227Z,75040
2017-05-19T06:07:49.875Z,77120
2017-05-19T06:08:30.474Z,81408
2017-05-19T06:09:11.158Z,84384
2017-05-19T06:09:51.762Z,86176
2017-05-19T06:10:32.415Z,84640
2017-05-19T06:11:13.011Z,81472
2017-05-19T06:11:53.652Z,77792
2017-05-19T06:12:34.268Z,79488
2017-05-19T06:13:14.858Z,82176
2017-05-19T06:13:55.476Z,83808
2017-05-19T06:14:36.141Z,83360
2017-05-19T06:15:16.734Z,82336
2017-05-19T06:15:57.330Z,82752
2017-05-19T06:16:37.920Z,83936
2017-05-19T06:17:18.508Z,83680
2017-05-19T06:17:59.082Z,85024
2017-05-19T06:18:39.671Z,85728
2017-05-19T06:19:20.376Z,84512
2017-05-19T06:20:00.910Z,84032
2017-05-19T06:20:41.527Z,82016
2017-05-19T06:21:22.134Z,81312
2017-05-19T06:22:02.736Z,81824
2017-05-19T06:22:43.363Z,81536
2017-05-19T06:23:24.227Z,79168
2017-05-19T06:24:04.862Z,79072
2017-05-19T06:24:45.417Z,80256
2017-05-19T06:25:26.032Z,82144
2017-05-19T06:26:06.620Z,81952
2017-05-19T06:26:47.666Z,80672
2017-05-19T06:27:28.299Z,80512
2017-05-19T06:28:08.964Z,82688
2017-05-19T06:28:49.585Z,82976
2017-05-19T06:29:30.218Z,80800
2017-05-19T06:30:10.847Z,79648
2017-05-19T06:30:51.424Z,80704
2017-05-19T06:31:32.056Z,82560
2017-05-19T06:32:12.660Z,82240
2017-05-19T06:32:53.547Z,81600
2017-05-19T06:33:34.175Z,79456
2017-05-19T06:34:14.786Z,76896
2017-05-19T06:36:48.331Z,84352
2017-05-19T06:37:28.920Z,81440
2017-05-19T06:38:09.508Z,79968
2017-05-19T06:38:50.117Z,80384
2017-05-19T06:39:30.746Z,83264
2017-05-19T06:40:11.323Z,85440
2017-05-19T06:40:51.937Z,85504
2017-05-19T06:41:32.537Z,85216
2017-05-19T06:42:13.165Z,83968
2017-05-19T06:42:53.790Z,84800
2017-05-19T06:43:34.413Z,85344
2017-05-19T06:44:15.002Z,85088
2017-05-19T06:44:55.617Z,86016
2017-05-19T06:45:36.221Z,88640
2017-05-19T06:46:16.843Z,88032
2017-05-19T06:46:57.452Z,86272
2017-05-19T06:47:38.059Z,83616
2017-05-19T06:48:18.702Z,82400
2017-05-19T06:48:59.345Z,82144
2017-05-19T06:49:39.937Z,82432
2017-05-19T06:50:20.558Z,83552
2017-05-19T06:51:01.145Z,81600
2017-05-19T06:51:41.757Z,80096
2017-05-19T06:52:22.410Z,80096
2017-05-19T06:53:03.011Z,80448
2017-05-19T06:53:43.631Z,80416
2017-05-19T06:54:24.256Z,81024
2017-05-19T06:55:04.849Z,82880
2017-05-19T06:55:45.447Z,83360
2017-05-19T06:56:26.055Z,82464
2017-05-19T06:57:06.655Z,82080
2017-05-19T06:57:47.298Z,81504
2017-05-19T06:58:27.907Z,82528
2017-05-19T06:59:08.534Z,83616
2017-05-19T06:59:49.147Z,83072
2017-05-19T07:00:29.753Z,82720
2017-05-19T07:01:10.365Z,82112
2017-05-19T07:01:51.013Z,82496
2017-05-19T07:02:31.621Z,81216
2017-05-19T07:03:12.233Z,81824
2017-05-19T07:03:52.833Z,83584
2017-05-19T07:04:33.454Z,83904
2017-05-19T07:05:14.089Z,83616
2017-05-19T07:05:54.685Z,83200
2017-05-19T07:06:35.288Z,83840
2017-05-19T07:07:15.890Z,85728
2017-05-19T07:07:56.501Z,86208
2017-05-19T07:08:37.154Z,84256
2017-05-19T07:09:17.747Z,84096
2017-05-19T07:09:58.351Z,85856
2017-05-19T07:10:38.990Z,86784
2017-05-19T07:11:19.638Z,84672
2017-05-19T07:12:00.228Z,85568
2017-05-19T07:12:40.864Z,85280
2017-05-19T07:13:21.462Z,85760
2017-05-19T07:14:02.077Z,84864
2017-05-19T07:14:42.735Z,81280
2017-05-19T07:15:23.361Z,80960
2017-05-19T07:16:04.214Z,81600
2017-05-19T07:16:44.713Z,82816
2017-05-19T07:17:25.332Z,85664
2017-05-19T07:18:05.971Z,86752
2017-05-19T07:18:46.613Z,87200
2017-05-19T07:19:27.241Z,86048
2017-05-19T07:20:07.862Z,85952
2017-05-19T07:20:48.472Z,83904
2017-05-19T07:21:29.097Z,80992
2017-05-19T07:22:09.740Z,81152
2017-05-19T07:22:50.338Z,84192
2017-05-19T07:23:30.961Z,86080
2017-05-19T07:24:11.550Z,84160
2017-05-19T07:24:52.188Z,82880
2017-05-19T07:25:32.800Z,82592
2017-05-19T07:26:13.405Z,83680
2017-05-19T07:26:54.057Z,84768
2017-05-19T07:27:34.865Z,86560
2017-05-19T07:28:15.485Z,87616
2017-05-19T07:28:56.111Z,86912
2017-05-19T07:29:36.719Z,85952
2017-05-19T07:30:17.313Z,85376
2017-05-19T07:30:57.925Z,85472
2017-05-19T07:31:38.533Z,85280
2017-05-19T07:32:19.166Z,86016
2017-05-19T07:32:59.756Z,87840
2017-05-19T07:33:40.378Z,88864
2017-05-19T07:34:20.955Z,89472
2017-05-19T07:35:01.550Z,88032
2017-05-19T07:35:42.162Z,86752
2017-05-19T07:36:22.809Z,86208
2017-05-19T07:37:03.424Z,89344
2017-05-19T07:37:44.049Z,89824
2017-05-19T07:38:24.740Z,89472
2017-05-19T07:39:05.331Z,89888
2017-05-19T07:39:46.152Z,92512
2017-05-19T07:40:26.761Z,89408
2017-05-19T07:41:07.384Z,82560
2017-05-19T07:41:48.034Z,77984
2017-05-19T07:42:28.654Z,82496
2017-05-19T07:43:09.350Z,88352
2017-05-19T07:43:50.047Z,90176
2017-05-19T07:44:30.722Z,89600
2017-05-19T07:45:11.453Z,88160
2017-05-19T07:45:52.075Z,86560
2017-05-19T07:46:32.679Z,84640
2017-05-19T07:47:13.287Z,84160
2017-05-19T07:47:53.922Z,84096
2017-05-19T07:48:34.530Z,83680
2017-05-19T07:49:15.121Z,83584
2017-05-19T07:49:55.736Z,82880
2017-05-19T07:50:36.352Z,81792
2017-05-19T07:51:17.172Z,81504
2017-05-19T07:51:57.780Z,81888
2017-05-19T07:52:38.369Z,81376
2017-05-19T07:53:18.985Z,83264
2017-05-19T07:53:59.562Z,82432
2017-05-19T07:54:40.157Z,79840
2017-05-19T07:55:20.849Z,77696
2017-05-19T07:56:01.605Z,81216
2017-05-19T07:56:42.305Z,85248
2017-05-19T07:57:22.952Z,83872
2017-05-19T07:58:03.554Z,62848
2017-05-19T07:58:44.364Z,37024
2017-05-19T07:59:24.859Z,19264
2017-05-19T08:00:05.591Z,17408
2017-05-19T08:00:46.260Z,16768
2017-05-19T08:01:26.894Z,16288
2017-05-19T08:02:07.538Z,16032
2017-05-19T08:02:48.122Z,15776
2017-05-19T08:03:28.723Z,15648
2017-05-19T08:04:09.350Z,15424
2017-05-19T08:04:49.964Z,15080
2017-05-19T08:05:30.571Z,14868
2017-05-19T08:06:11.198Z,14604
2017-05-19T08:06:51.942Z,14392
2017-05-19T08:07:32.511Z,14180
2017-05-19T08:08:13.112Z,13920
2017-05-19T08:08:53.804Z,13636
2017-05-19T08:09:34.387Z,13352
2017-05-19T08:10:15.003Z,13060
2017-05-19T08:10:55.593Z,12808
2017-05-19T08:11:36.182Z,12548
2017-05-19T08:12:16.790Z,12260
2017-05-19T08:12:57.401Z,11984
2017-05-19T08:13:37.984Z,11724
2017-05-19T08:14:18.617Z,11472
2017-05-19T08:14:59.248Z,11232
2017-05-19T08:15:39.874Z,11004
2017-05-19T08:16:20.509Z,10776
2017-05-19T08:17:01.109Z,10552
2017-05-19T08:17:41.703Z,10360
2017-05-19T08:18:22.291Z,10160
2017-05-19T08:19:02.875Z,9996
2017-05-19T08:19:43.465Z,9852
2017-05-19T08:20:24.067Z,9700
2017-05-19T08:21:04.655Z,9556
2017-05-19T08:21:45.266Z,9392
2017-05-19T08:22:25.983Z,9260
2017-05-19T08:23:07.143Z,9136
2017-05-19T08:23:48.352Z,9032
2017-05-19T08:24:29.565Z,8892
2017-05-19T08:25:10.811Z,8764
2017-05-19T08:25:51.531Z,8632
2017-05-19T08:26:32.120Z,8512
2017-05-19T08:27:12.785Z,8412
2017-05-19T08:27:53.394Z,8308
2017-05-19T08:28:33.992Z,8220
2017-05-19T08:29:14.599Z,8132
2017-05-19T08:29:55.199Z,8024
2017-05-19T08:30:35.833Z,7924
2017-05-19T08:31:16.417Z,7848
2017-05-19T08:31:57.016Z,7732
2017-05-19T08:32:37.590Z,7668
2017-05-19T08:33:18.171Z,7568
2017-05-19T08:33:58.783Z,7500
2017-05-19T08:34:39.378Z,7432
2017-05-19T08:35:19.941Z,7364
2017-05-19T08:36:00.546Z,7292
2017-05-19T08:36:41.132Z,7228
2017-05-19T08:37:21.714Z,7180
2017-05-19T08:38:02.328Z,7124
2017-05-19T08:38:42.924Z,7056
2017-05-19T08:39:23.521Z,7012
2017-05-19T08:40:04.093Z,6952
2017-05-19T08:40:44.681Z,6896
2017-05-19T08:41:25.259Z,6848
2017-05-19T08:42:05.859Z,6788
2017-05-19T08:42:46.442Z,6740
2017-05-19T08:43:27.064Z,6688
2017-05-19T08:44:07.665Z,6648
2017-05-19T08:44:48.226Z,6580
2017-05-19T08:45:28.834Z,6540
2017-05-19T08:46:09.439Z,6520
2017-05-19T08:46:50.031Z,6480
2017-05-19T08:47:30.647Z,6440
2017-05-19T08:48:11.228Z,6388
2017-05-19T08:48:51.818Z,6328
2017-05-19T08:49:32.411Z,6280
2017-05-19T08:50:13.006Z,6200
2017-05-19T08:50:53.602Z,6160
2017-05-19T08:51:34.230Z,6120
2017-05-19T08:52:14.892Z,6068
2017-05-19T08:52:55.495Z,6008
2017-05-19T08:53:36.082Z,5984
2017-05-19T08:54:16.661Z,5948
2017-05-19T08:54:57.243Z,5908
2017-05-19T08:55:37.832Z,5860
2017-05-19T08:56:18.479Z,5820
2017-05-19T08:56:59.084Z,5784
2017-05-19T08:57:39.685Z,5768
2017-05-19T08:58:20.286Z,5704
2017-05-19T08:59:00.916Z,5672
2017-05-19T08:59:41.505Z,5636
2017-05-19T09:00:22.091Z,5612
2017-05-19T09:01:02.688Z,5564
2017-05-19T09:01:43.309Z,5540
2017-05-19T09:02:23.897Z,5488
2017-05-19T09:03:04.503Z,5444
2017-05-19T09:03:45.092Z,5408
2017-05-19T09:04:25.713Z,5412
2017-05-19T09:05:06.316Z,5380
2017-05-19T09:05:46.901Z,5360
2017-05-19T09:06:27.493Z,5384
2017-05-19T09:07:08.067Z,5320
2017-05-19T09:07:48.669Z,5308
2017-05-19T09:08:29.252Z,5292
2017-05-19T09:09:09.871Z,5268
2017-05-19T09:09:50.460Z,5244
2017-05-19T09:10:31.065Z,5212
2017-05-19T09:11:11.657Z,5196
2017-05-19T09:11:52.271Z,5164
2017-05-19T09:12:32.843Z,5164
2017-05-19T09:13:13.453Z,5140
2017-05-19T09:13:54.034Z,5108
2017-05-19T09:14:34.632Z,5080
2017-05-19T09:15:15.247Z,5052
2017-05-19T09:15:55.898Z,5044